Time;durP1;ratioP1;P1;durP2;ratioP2;P2;SDS_P1;SDS_P2;PMS_P1;PMS_P2;Temp;Humidity;BMP_temperature;BMP_pressure;BME280_temperature;BME280_humidity;BME280_pressure;Samples;Min_cycle;Max_cycle;Signal;HPM_P1;HPM_P2
2023/01/29 00:00:14;;;;;;;23.65;18.25;;;8.00;99.90;;;8.21;71.23;102859.34;5075895;28;20079;-81
2023/01/29 00:02:43;;;;;;;23.63;18.80;;;7.90;99.90;;;8.19;71.69;102859.31;5077078;28;20055;-77
2023/01/29 00:05:12;;;;;;;23.35;18.65;;;8.00;99.90;;;8.18;71.51;102846.06;5076707;28;20048;-77
2023/01/29 00:07:55;;;;;;;24.40;18.63;;;8.00;99.90;;;8.19;71.26;102846.13;5076670;28;20513;-77
2023/01/29 00:10:25;;;;;;;23.05;19.05;;;8.00;99.90;;;8.02;71.28;102814.72;5077011;28;20098;-78
2023/01/29 00:12:53;;;;;;;24.55;19.45;;;8.00;99.90;;;8.01;71.25;102805.91;5075680;28;20056;-78
2023/01/29 00:15:23;;;;;;;23.02;18.77;;;8.00;99.90;;;7.86;71.28;102775.44;5076565;28;20044;-77
2023/01/29 00:17:51;;;;;;;26.88;19.17;;;8.00;99.90;;;8.08;70.64;102802.66;5077147;28;20363;-77
2023/01/29 00:20:20;;;;;;;25.88;19.17;;;8.10;99.90;;;8.29;71.08;102842.13;5076469;28;20476;-78
2023/01/29 00:22:48;;;;;;;25.77;19.92;;;8.00;99.90;;;8.28;70.92;102842.06;5076460;28;20090;-79
2023/01/29 00:25:17;;;;;;;25.75;19.95;;;8.00;99.90;;;8.31;71.03;102834.25;5076671;28;20047;-77
2023/01/29 00:27:45;;;;;;;24.25;19.25;;;8.00;99.90;;;8.29;70.69;102850.03;5076412;28;20037;-78
2023/01/29 00:30:17;;;;;;;23.23;18.92;;;8.00;99.90;;;8.23;70.87;102833.06;5075262;28;20094;-78
2023/01/29 00:32:48;;;;;;;22.55;19.05;;;8.00;99.90;;;8.32;70.68;102838.72;5076541;28;20079;-79
2023/01/29 00:35:16;;;;;;;26.07;19.07;;;8.00;99.90;;;8.29;70.77;102831.56;5076244;28;20131;-79
2023/01/29 00:37:45;;;;;;;25.50;19.75;;;8.10;99.90;;;8.26;71.17;102831.47;5075052;28;20044;-78
2023/01/29 00:40:14;;;;;;;24.05;19.92;;;8.00;99.90;;;8.29;71.48;102836.84;5076225;28;20050;-78
2023/01/29 00:45:30;;;;;;;25.27;20.40;;;8.00;99.90;;;8.37;70.68;102826.56;5074785;28;20083;-78
2023/01/29 00:48:00;;;;;;;25.25;19.80;;;8.10;99.90;;;8.38;70.91;102825.75;5074762;28;20048;-78
2023/01/29 00:50:29;;;;;;;27.70;20.95;;;8.10;99.90;;;8.32;70.72;102815.88;5074975;28;20082;-77
2023/01/29 00:52:57;;;;;;;30.08;21.02;;;8.10;99.90;;;8.36;70.78;102822.16;5075954;28;20044;-78
2023/01/29 00:55:26;;;;;;;26.75;20.75;;;8.10;99.90;;;8.23;71.23;102802.31;5076129;28;20045;-78
2023/01/29 00:57:54;;;;;;;28.35;21.05;;;8.10;99.90;;;8.28;71.16;102805.16;5076256;28;20041;-77
2023/01/29 01:00:23;;;;;;;28.77;21.25;;;8.10;99.90;;;8.36;71.21;102820.44;5076585;28;20059;-78
2023/01/29 01:03:06;;;;;;;30.25;21.13;;;8.10;99.90;;;8.33;70.73;102804.47;5075772;28;20060;-78
2023/01/29 01:05:37;;;;;;;25.90;20.58;;;8.10;99.90;;;8.33;70.96;102816.75;5076274;28;20068;-78
2023/01/29 01:10:19;;;;;;;27.17;20.60;;;8.10;99.90;;;8.32;70.50;102805.34;5076465;28;20049;-78
2023/01/29 01:11:00;;;;;;;28.50;20.73;;;8.00;99.90;;;8.25;70.50;102807.66;5077258;28;20053;-76
2023/01/29 01:13:29;;;;;;;26.80;20.73;;;8.00;99.90;;;8.29;70.58;102814.84;5078392;28;20037;-78
2023/01/29 01:15:57;;;;;;;26.90;21.13;;;8.00;99.90;;;8.27;70.52;102813.91;5076097;28;20087;-78
2023/01/29 01:18:29;;;;;;;32.90;22.48;;;8.00;99.90;;;8.28;70.53;102810.44;5077262;28;20119;-78
2023/01/29 01:20:59;;;;;;;28.80;21.98;;;8.00;99.90;;;7.53;70.43;102669.75;5078047;28;20040;-78
2023/01/29 01:23:27;;;;;;;30.08;23.17;;;8.00;99.90;;;8.30;70.53;102807.03;5076746;28;20509;-77
2023/01/29 01:25:55;;;;;;;36.70;24.52;;;8.00;99.90;;;8.21;70.72;102807.53;5077467;28;20098;-78
2023/01/29 01:28:24;;;;;;;33.45;25.08;;;7.90;99.90;;;8.15;70.86;102798.50;5074952;28;20075;-78
2023/01/29 01:30:52;;;;;;;34.20;23.75;;;8.00;99.90;;;8.28;70.95;102820.97;5075625;28;20060;-77
2023/01/29 01:33:21;;;;;;;32.70;24.42;;;8.00;99.90;;;8.26;70.97;102820.94;5074317;28;20494;-78
2023/01/29 01:35:49;;;;;;;34.15;24.95;;;8.00;99.90;;;8.26;71.34;102825.31;5075422;28;20083;-78
2023/01/29 01:38:19;;;;;;;35.28;25.52;;;8.00;99.90;;;8.23;70.97;102819.03;5074607;28;20102;-77
2023/01/29 01:40:48;;;;;;;34.53;24.65;;;8.00;99.90;;;8.10;71.12;102793.09;5075478;28;20097;-78
2023/01/29 01:43:16;;;;;;;33.17;24.50;;;8.00;99.90;;;8.30;70.75;102821.94;5074972;28;20045;-78
2023/01/29 01:45:45;;;;;;;33.25;25.63;;;8.00;99.90;;;8.28;71.08;102824.53;5073862;28;20131;-77
2023/01/29 01:48:18;;;;;;;35.65;25.65;;;8.00;99.90;;;8.29;71.10;102825.38;5075189;28;20036;-77
2023/01/29 01:50:51;;;;;;;34.08;25.90;;;8.00;99.90;;;8.27;70.77;102822.72;5074834;28;20048;-78
2023/01/29 01:53:26;;;;;;;36.03;25.95;;;8.00;99.90;;;8.29;70.85;102821.03;5073837;28;20045;-77
2023/01/29 01:55:58;;;;;;;35.72;25.40;;;8.10;99.90;;;8.10;71.33;102784.28;5074763;28;20093;-76
2023/01/29 01:58:32;;;;;;;35.50;26.35;;;8.00;99.90;;;8.26;71.20;102820.03;5073987;28;20135;-78
2023/01/29 02:01:01;;;;;;;34.83;26.17;;;8.00;99.90;;;8.21;71.33;102820.72;5073755;28;20098;-77
2023/01/29 02:11:59;;;;;;;36.17;27.35;;;7.90;99.90;;;8.18;71.25;102809.19;5074482;28;20143;-77
2023/01/29 02:14:27;;;;;;;32.38;25.42;;;8.00;99.90;;;8.05;71.63;102785.84;5075099;28;20050;-77
2023/01/29 02:16:55;;;;;;;36.90;26.00;;;7.90;99.90;;;8.13;71.42;102798.44;5074600;28;20120;-77
2023/01/29 02:19:39;;;;;;;36.50;26.00;;;7.90;99.90;;;8.11;71.72;102797.50;5074219;28;20052;-78
2023/01/29 02:22:27;;;;;;;35.50;25.67;;;7.80;99.90;;;8.03;71.36;102780.50;5074553;28;20045;-78
2023/01/29 02:25:12;;;;;;;36.20;26.17;;;7.80;99.90;;;8.12;71.30;102796.66;5074473;28;20045;-78
2023/01/29 02:28:14;;;;;;;40.83;27.88;;;7.90;99.90;;;8.09;71.29;102804.44;5074410;28;20048;-77
2023/01/29 02:30:50;;;;;;;35.78;26.40;;;7.80;99.90;;;8.07;71.52;102806.13;5074314;28;20094;-77
2023/01/29 02:33:30;;;;;;;34.28;25.70;;;7.80;99.90;;;8.07;71.64;102816.66;5074287;28;20561;-77
2023/01/29 02:36:13;;;;;;;37.10;28.35;;;7.80;99.90;;;8.06;71.49;102812.25;5072946;28;20056;-78
2023/01/29 02:38:50;;;;;;;34.40;25.90;;;7.80;99.90;;;8.10;71.60;102806.25;5073943;28;20483;-78
2023/01/29 02:41:26;;;;;;;36.72;26.75;;;7.80;99.90;;;8.14;71.45;102802.91;5073862;28;20048;-78
2023/01/29 02:44:04;;;;;;;39.05;25.95;;;7.90;99.90;;;8.06;71.20;102796.44;5074313;28;20087;-77
2023/01/29 02:46:39;;;;;;;33.25;25.45;;;7.90;99.90;;;8.14;71.29;102810.81;5072505;28;20078;-78
2023/01/29 02:49:17;;;;;;;35.33;26.58;;;7.90;99.90;;;8.13;71.47;102805.44;5072533;28;20087;-77
2023/01/29 02:51:56;;;;;;;32.42;25.25;;;7.90;99.90;;;8.17;71.58;102807.34;5073965;28;20048;-77
2023/01/29 02:54:32;;;;;;;34.20;25.90;;;7.90;99.90;;;8.17;71.12;102803.00;5073928;28;20059;-77
2023/01/29 02:57:13;;;;;;;32.13;24.45;;;7.90;99.90;;;8.16;71.09;102803.84;5072629;28;20076;-77
2023/01/29 02:59:48;;;;;;;33.50;24.70;;;7.90;99.90;;;8.16;71.23;102805.59;5073826;28;20105;-78
2023/01/29 03:02:21;;;;;;;35.65;25.88;;;7.90;99.90;;;8.05;71.12;102792.00;5089380;28;20063;-78
2023/01/29 03:04:58;;;;;;;30.98;23.92;;;7.90;99.90;;;8.13;71.28;102801.09;5072329;28;20475;-78
2023/01/29 03:07:43;;;;;;;33.60;24.63;;;7.90;99.90;;;8.11;71.27;102797.50;5072358;28;20119;-78
2023/01/29 03:10:22;;;;;;;32.88;24.00;;;7.90;99.90;;;7.94;71.66;102766.09;5072260;28;20151;-77
2023/01/29 03:12:55;;;;;;;32.10;23.48;;;7.90;99.90;;;8.04;71.64;102813.03;5073653;28;20083;-78
2023/01/29 03:15:31;;;;;;;31.45;23.55;;;7.80;99.90;;;8.07;71.60;102794.72;5072252;28;20052;-77
2023/01/29 03:18:18;;;;;;;31.02;23.02;;;7.80;99.90;;;7.98;71.76;102779.44;5072202;28;20083;-78
2023/01/29 03:20:57;;;;;;;30.38;23.17;;;7.80;99.90;;;7.98;71.59;102787.34;5072596;28;20490;-78
2023/01/29 03:32:05;;;;;;;30.95;22.08;;;7.60;99.90;;;7.81;71.77;102777.03;5073623;28;20115;-78
2023/01/29 03:34:42;;;;;;;29.40;23.23;;;7.60;99.90;;;7.79;71.78;102768.16;5072341;28;20496;-77
2023/01/29 03:37:17;;;;;;;33.85;25.50;;;7.60;99.90;;;7.83;72.20;102763.09;5088866;28;20072;-77
2023/01/29 03:39:46;;;;;;;32.10;24.20;;;7.60;99.90;;;7.86;71.94;102778.09;5072041;28;20052;-78
2023/01/29 03:42:25;;;;;;;32.22;23.45;;;7.60;99.90;;;7.83;71.55;102781.53;5071970;28;20094;-77
2023/01/29 03:45:02;;;;;;;33.00;23.70;;;7.60;99.90;;;7.88;72.05;102779.94;5071991;28;20041;-77
2023/01/29 03:47:45;;;;;;;29.65;22.45;;;7.60;99.90;;;7.81;71.91;102777.94;5071931;28;20110;-77
2023/01/29 03:50:31;;;;;;;30.10;22.63;;;7.60;99.90;;;7.78;71.74;102775.16;5071546;28;20048;-78
2023/01/29 03:53:09;;;;;;;29.23;22.45;;;7.60;99.90;;;7.84;71.50;102767.50;5071922;28;20139;-78
2023/01/29 03:55:43;;;;;;;28.33;22.23;;;7.60;99.90;;;7.77;71.88;102761.94;5071935;28;20402;-77
2023/01/29 03:58:23;;;;;;;29.23;22.30;;;7.60;99.90;;;7.78;72.51;102762.00;5072965;28;20429;-77
2023/01/29 04:00:55;;;;;;;;;;;7.50;99.90;;;7.69;72.20;102756.41;5072264;28;20079;-77
2023/01/29 04:03:34;;;;;;;32.53;22.90;;;7.50;99.90;;;7.80;72.50;102752.41;5071833;28;19928;-78
2023/01/29 04:06:09;;;;;;;33.28;21.65;;;7.50;99.90;;;7.81;72.44;102743.69;5071733;28;20453;-78
2023/01/29 04:08:49;;;;;;;;;;;7.60;99.90;;;7.84;72.28;102743.78;5072410;28;20136;-77
2023/01/29 04:11:20;;;;;;;32.35;21.70;;;7.60;99.90;;;7.87;72.57;102753.56;5072504;28;19927;-77
2023/01/29 04:13:50;;;;;;;30.83;22.17;;;7.60;99.90;;;7.90;72.41;102749.28;5071654;28;20047;-77
2023/01/29 04:16:24;;;;;;;32.35;21.90;;;7.60;99.90;;;7.68;72.36;102709.84;5072965;28;20045;-76
2023/01/29 04:19:14;;;;;;;25.92;20.67;;;7.60;99.90;;;7.88;72.29;102747.44;5088638;28;20045;-77
2023/01/29 04:21:45;;;;;;;26.60;20.05;;;7.60;99.90;;;7.15;71.94;102622.69;5071710;28;20102;-77
2023/01/29 04:24:14;;;;;;;27.38;20.40;;;7.60;99.90;;;7.62;72.30;102704.34;5071580;28;20049;-77
2023/01/29 04:26:58;;;;;;;26.00;21.17;;;7.50;99.90;;;7.72;71.99;102731.91;5072695;28;20044;-77
2023/01/29 04:29:44;;;;;;;28.17;20.73;;;7.50;99.90;;;7.55;71.86;102711.97;5071501;28;20090;-77
2023/01/29 04:32:19;;;;;;;28.30;21.23;;;7.40;99.90;;;7.52;72.23;102718.00;5072078;28;20052;-77
2023/01/29 04:35:01;;;;;;;27.38;21.52;;;7.30;99.90;;;7.55;72.59;102720.75;5073475;28;20041;-77
2023/01/29 04:37:40;;;;;;;29.02;21.48;;;7.30;99.90;;;7.62;72.46;102728.06;5074640;28;20044;-77
2023/01/29 04:40:20;;;;;;;26.63;21.77;;;7.30;99.90;;;7.62;73.02;102725.41;5076087;28;20090;-77
2023/01/29 04:42:59;;;;;;;28.10;22.38;;;7.40;99.90;;;7.63;72.78;102727.19;5075630;28;20424;-77
2023/01/29 04:45:40;;;;;;;27.02;21.17;;;7.30;99.90;;;7.61;72.97;102713.06;5075049;28;20048;-76
2023/01/29 04:48:19;;;;;;;28.63;22.20;;;7.40;99.90;;;7.40;72.73;102666.63;5075184;28;20048;-77
2023/01/29 04:50:56;;;;;;;27.00;22.33;;;7.30;99.90;;;7.55;72.92;102702.31;5073708;28;20045;-77
2023/01/29 04:53:36;;;;;;;25.38;20.90;;;7.30;99.90;;;7.59;73.21;102705.97;5076075;28;20434;-76
2023/01/29 04:56:13;;;;;;;31.40;22.60;;;7.30;99.90;;;7.47;73.24;102692.34;5074865;28;20498;-77
2023/01/29 04:58:45;;;;;;;28.85;21.98;;;7.30;99.90;;;7.54;73.52;102694.34;5074800;28;20447;-77
2023/01/29 05:01:17;;;;;;;27.92;21.15;;;7.30;99.90;;;7.53;73.43;102692.59;5073444;28;20160;-77
2023/01/29 05:03:50;;;;;;;28.00;22.25;;;7.30;99.90;;;7.58;73.46;102702.44;5074587;28;20071;-75
2023/01/29 05:06:21;;;;;;;29.77;23.38;;;7.30;99.90;;;7.61;73.31;102705.16;5074564;28;20037;-77
2023/01/29 05:08:51;;;;;;;29.17;23.13;;;7.30;99.90;;;7.51;73.07;102695.13;5073561;28;20059;-77
2023/01/29 05:11:20;;;;;;;35.13;23.88;;;7.40;99.90;;;7.61;73.04;102702.53;5074473;28;20049;-77
2023/01/29 05:13:49;;;;;;;31.75;24.67;;;7.30;99.90;;;7.54;73.26;102684.72;5074505;28;20502;-77
2023/01/29 05:16:24;;;;;;;31.20;22.95;;;7.30;99.90;;;7.55;73.35;102696.16;5074401;28;20032;-76
2023/01/29 05:18:52;;;;;;;34.50;24.42;;;7.30;99.90;;;7.59;73.38;102692.81;5074667;28;20409;-76
2023/01/29 05:21:23;;;;;;;31.02;24.17;;;7.30;99.90;;;7.58;73.63;102689.28;5074376;28;20410;-78
2023/01/29 05:24:08;;;;;;;32.35;26.00;;;7.30;99.90;;;7.51;73.37;102679.34;5074218;28;20052;-77
2023/01/29 05:29:23;;;;;;;34.08;24.20;;;7.30;99.90;;;7.53;73.52;102677.66;5073877;28;20052;-76
2023/01/29 05:31:52;;;;;;;32.92;25.90;;;7.20;99.90;;;7.50;73.49;102680.19;5074050;28;20511;-77
2023/01/29 05:34:20;;;;;;;32.22;24.90;;;7.30;99.90;;;7.56;73.65;102669.88;5073839;28;20044;-77
2023/01/29 05:36:50;;;;;;;33.88;26.42;;;7.30;99.90;;;7.48;73.47;102676.59;5073871;28;20071;-77
2023/01/29 05:39:19;;;;;;;36.67;25.80;;;7.30;99.90;;;7.41;73.06;102648.28;5074318;28;20230;-76
2023/01/29 05:41:48;;;;;;;31.00;23.77;;;7.30;99.90;;;7.53;73.32;102666.25;5073999;28;20335;-77
2023/01/29 05:44:16;;;;;;;34.53;24.23;;;7.30;99.90;;;7.56;73.61;102666.34;5072703;28;20071;-77
2023/01/29 05:46:45;;;;;;;32.53;26.42;;;7.30;99.90;;;7.47;73.70;102682.69;5073539;28;20147;-77
2023/01/29 05:49:13;;;;;;;33.45;25.98;;;7.20;99.90;;;7.40;73.52;102670.16;5073805;28;20044;-77
2023/01/29 05:51:42;;;;;;;33.30;25.55;;;7.10;99.90;;;7.40;73.58;102663.97;5073496;28;20397;-77
2023/01/29 05:54:13;;;;;;;32.28;25.40;;;7.20;99.90;;;7.43;73.97;102669.38;5074454;28;20402;-76
2023/01/29 05:56:42;;;;;;;36.83;25.40;;;7.20;99.90;;;7.41;73.91;102671.06;5075274;28;20044;-79
2023/01/29 05:59:10;;;;;;;35.88;26.65;;;7.20;99.90;;;7.47;74.11;102666.91;5073699;28;20149;-77
2023/01/29 06:01:39;;;;;;;35.53;26.85;;;7.20;99.90;;;7.35;73.87;102640.16;5074291;28;20067;-77
2023/01/29 06:04:07;;;;;;;32.97;26.05;;;7.30;99.90;;;7.24;73.42;102609.88;5073880;28;20036;-77
2023/01/29 06:06:35;;;;;;;31.80;24.75;;;7.30;99.90;;;7.61;73.44;102672.66;5073508;28;20082;-77
2023/01/29 06:09:04;;;;;;;34.03;24.23;;;7.30;99.90;;;7.62;73.52;102670.13;5075620;28;20079;-77
2023/01/29 06:11:34;;;;;;;33.42;24.95;;;7.30;99.90;;;7.61;73.56;102670.94;5074587;28;20067;-76
2023/01/29 06:14:02;;;;;;;34.17;24.73;;;7.30;99.90;;;7.58;73.38;102668.22;5072405;28;20063;-75
2023/01/29 06:16:30;;;;;;;33.38;25.10;;;7.30;99.90;;;7.51;73.22;102657.41;5073600;28;20389;-77
2023/01/29 06:18:59;;;;;;;34.50;24.83;;;7.40;99.90;;;7.54;73.49;102666.31;5073488;28;20064;-76
2023/01/29 06:21:27;;;;;;;32.42;25.85;;;7.30;99.90;;;7.49;73.42;102669.63;5074310;28;20037;-77
2023/01/29 06:23:56;;;;;;;31.20;24.77;;;7.30;99.90;;;7.42;73.42;102662.31;5073501;28;20491;-77
2023/01/29 06:26:24;;;;;;;30.77;24.58;;;7.20;99.90;;;7.34;73.60;102653.25;5073622;28;20037;-76
2023/01/29 06:28:54;;;;;;;34.22;25.20;;;7.10;99.90;;;7.38;73.48;102650.78;5074358;28;20402;-76
2023/01/29 06:31:22;;;;;;;34.83;25.52;;;7.10;99.90;;;7.32;73.93;102640.00;5073686;28;20048;-76
2023/01/29 06:34:07;;;;;;;35.72;26.25;;;7.10;99.90;;;7.27;74.06;102644.22;5073144;28;20040;-76
2023/01/29 06:36:36;;;;;;;34.97;25.88;;;7.00;99.90;;;7.23;74.10;102632.69;5072121;28;20047;-76
2023/01/29 06:39:04;;;;;;;33.88;26.98;;;7.00;99.90;;;7.29;74.13;102635.56;5073517;28;20109;-75
2023/01/29 06:41:33;;;;;;;32.85;25.92;;;7.00;99.90;;;7.23;74.03;102642.31;5073369;28;20044;-76
2023/01/29 06:44:03;;;;;;;34.67;26.50;;;7.00;99.90;;;7.17;74.46;102642.06;5073653;28;20185;-76
2023/01/29 06:46:31;;;;;;;37.97;27.08;;;7.00;99.90;;;7.20;74.30;102647.47;5072626;28;20052;-75
2023/01/29 06:49:00;;;;;;;38.75;27.25;;;7.00;99.90;;;7.21;74.58;102646.63;5071807;28;20067;-76
2023/01/29 06:51:28;;;;;;;36.47;26.80;;;6.90;99.90;;;7.23;74.41;102639.69;5072649;28;20127;-76
2023/01/29 06:53:57;;;;;;;37.17;26.55;;;7.00;99.90;;;7.25;74.39;102632.75;5071536;28;20389;-76
2023/01/29 06:56:26;;;;;;;38.63;27.77;;;7.00;99.90;;;7.31;74.46;102632.97;5072811;28;20087;-77
2023/01/29 06:58:54;;;;;;;38.28;27.50;;;7.00;99.90;;;7.27;74.34;102629.34;5072552;28;20040;-76
2023/01/29 07:01:24;;;;;;;39.22;29.30;;;7.00;99.90;;;7.23;74.98;102631.78;5072451;28;20438;-76
2023/01/29 07:04:04;;;;;;;35.15;25.77;;;7.00;99.90;;;7.05;74.59;102602.13;5072733;28;20044;-76
2023/01/29 07:06:33;;;;;;;35.55;27.00;;;7.00;99.90;;;7.22;75.00;102624.72;5072390;28;20052;-76
2023/01/29 07:09:01;;;;;;;36.15;26.40;;;7.00;99.90;;;7.22;74.92;102627.34;5072541;28;20123;-76
2023/01/29 07:11:30;;;;;;;36.58;27.95;;;7.00;99.90;;;7.09;75.35;102626.00;5073271;28;20049;-77
2023/01/29 07:13:58;;;;;;;36.47;27.25;;;6.90;99.90;;;7.04;75.07;102617.06;5072243;28;20119;-77
2023/01/29 07:16:28;;;;;;;35.10;27.02;;;6.90;99.90;;;7.23;75.07;102634.41;5072551;28;20048;-76
2023/01/29 07:18:57;;;;;;;35.95;26.73;;;6.90;99.90;;;7.02;74.93;102608.22;5072611;28;20052;-77
2023/01/29 07:21:25;;;;;;;34.63;27.30;;;6.90;99.90;;;7.05;74.94;102610.03;5072332;28;20047;-76
2023/01/29 07:23:54;;;;;;;34.72;25.73;;;6.90;99.90;;;7.23;75.05;102643.22;5071350;28;20181;-75
2023/01/29 07:26:22;;;;;;;36.88;27.73;;;6.90;99.90;;;7.18;75.19;102642.13;5072108;28;20051;-76
2023/01/29 07:28:51;;;;;;;39.97;28.45;;;6.90;99.90;;;7.22;75.18;102641.41;5072230;28;20158;-75
2023/01/29 07:31:20;;;;;;;39.67;28.95;;;6.90;99.90;;;7.13;75.17;102640.16;5072381;28;20559;-75
2023/01/29 07:33:50;;;;;;;37.78;28.55;;;6.90;99.90;;;7.19;75.02;102643.03;5072772;28;20052;-76
2023/01/29 07:36:18;;;;;;;35.55;26.80;;;6.90;99.90;;;6.60;75.35;102526.78;5070834;28;20056;-76
2023/01/29 07:38:50;;;;;;;38.22;28.17;;;6.90;99.90;;;7.14;75.46;102634.09;5072833;28;20486;-76
2023/01/29 07:41:18;;;;;;;39.78;28.45;;;6.90;99.90;;;6.99;75.73;102604.53;5072258;28;20103;-78
2023/01/29 07:43:47;;;;;;;40.80;29.85;;;6.90;99.90;;;7.21;75.38;102638.72;5071249;28;20043;-81
2023/01/29 07:46:16;;;;;;;40.63;28.92;;;7.00;99.90;;;7.23;75.22;102643.22;5071322;28;20080;-79
2023/01/29 07:48:44;;;;;;;37.50;27.80;;;7.00;99.90;;;7.20;75.37;102626.44;5072530;28;20040;-79
2023/01/29 07:51:15;;;;;;;40.97;28.20;;;7.00;99.90;;;7.14;75.44;102613.03;5072666;28;20048;-79
2023/01/29 07:53:44;;;;;;;37.88;29.30;;;7.00;99.90;;;7.15;75.55;102625.34;5071760;28;20069;-78
2023/01/29 07:56:12;;;;;;;38.90;29.70;;;7.00;99.90;;;7.21;75.66;102637.00;5072018;28;20075;-78
2023/01/29 07:58:41;;;;;;;40.35;29.30;;;7.00;99.90;;;7.14;75.93;102658.63;5071786;28;20098;-78
2023/01/29 08:01:09;;;;;;;39.13;29.10;;;6.90;99.90;;;7.12;76.11;102617.34;5072273;28;20462;-78
2023/01/29 08:03:38;;;;;;;37.67;28.33;;;6.90;99.90;;;7.19;76.15;102624.63;5072202;28;20090;-79
2023/01/29 08:06:07;;;;;;;41.05;29.50;;;7.00;99.90;;;7.23;75.86;102629.16;5071935;28;20110;-82
2023/01/29 08:08:37;;;;;;;38.33;28.70;;;6.90;99.90;;;7.23;75.89;102623.88;5074931;28;20041;-83
2023/01/29 08:11:06;;;;;;;41.83;30.65;;;7.00;99.90;;;7.21;75.97;102621.22;5074412;28;20428;-79
2023/01/29 08:13:34;;;;;;;40.00;29.30;;;7.00;99.90;;;7.22;76.04;102628.25;5074503;28;20040;-75
2023/01/29 08:16:04;;;;;;;40.50;30.65;;;7.00;99.90;;;6.59;75.79;102519.72;5074512;28;20086;-74
2023/01/29 08:18:33;;;;;;;40.88;30.92;;;7.00;99.90;;;7.08;76.06;102607.53;5075910;28;20629;-75
2023/01/29 08:21:02;;;;;;;41.28;29.92;;;6.90;99.90;;;7.14;76.36;102620.94;5076317;28;20049;-73
2023/01/29 08:23:31;;;;;;;42.55;30.23;;;6.90;99.90;;;6.98;76.43;102608.03;5075980;28;20037;-74
2023/01/29 08:26:03;;;;;;;41.42;30.77;;;6.80;99.90;;;7.12;76.24;102612.94;5075810;28;20040;-75
2023/01/29 08:28:31;;;;;;;41.72;31.08;;;6.90;99.90;;;7.05;76.38;102594.25;5076078;28;20044;-72
2023/01/29 08:31:00;;;;;;;41.05;30.20;;;6.80;99.90;;;7.12;76.40;102607.69;5074033;28;20048;-70
2023/01/29 08:33:29;;;;;;;39.67;30.42;;;6.80;99.90;;;7.06;76.89;102596.97;5073806;28;20127;-68
2023/01/29 08:36:08;;;;;;;40.53;31.23;;;6.80;99.90;;;7.05;76.98;102602.13;5075229;28;20048;-70
2023/01/29 08:38:37;;;;;;;43.53;31.20;;;6.80;99.90;;;7.08;77.05;102599.66;5075115;28;20402;-68
2023/01/29 08:41:07;;;;;;;41.53;31.17;;;6.80;99.90;;;7.01;77.17;102581.81;5074219;28;20056;-75
2023/01/29 08:43:37;;;;;;;47.03;32.45;;;6.80;99.90;;;6.97;77.18;102585.16;5073951;28;20040;-72
2023/01/29 08:46:06;;;;;;;46.72;33.50;;;6.80;99.90;;;6.79;77.01;102550.31;5075014;28;20057;-73
2023/01/29 08:48:35;;;;;;;49.40;33.00;;;6.80;99.90;;;6.97;77.46;102591.34;5073981;28;20049;-73
2023/01/29 08:51:04;;;;;;;47.05;33.15;;;6.70;99.90;;;6.97;77.51;102587.78;5075082;28;20130;-77
2023/01/29 08:53:33;;;;;;;45.03;32.35;;;6.70;99.90;;;7.00;77.60;102594.09;5075054;28;20106;-83
2023/01/29 08:56:01;;;;;;;46.58;32.25;;;6.80;99.90;;;6.31;77.67;102458.22;5074738;28;20040;-68
2023/01/29 08:58:31;;;;;;;45.85;32.92;;;6.70;99.90;;;6.97;77.99;102578.19;5072986;28;20067;-72
2023/01/29 09:01:07;;;;;;;46.55;33.03;;;6.70;99.90;;;7.04;78.01;102595.09;5074930;28;20079;-71
2023/01/29 09:03:36;;;;;;;51.83;34.50;;;6.80;99.90;;;7.07;77.97;102587.31;5072820;28;20045;-71
2023/01/29 09:06:04;;;;;;;46.28;33.95;;;6.80;99.90;;;7.11;77.94;102591.84;5089567;28;20489;-70
2023/01/29 09:08:34;;;;;;;45.15;34.47;;;6.80;99.90;;;7.15;77.82;102596.38;5074057;28;20139;-69
2023/01/29 09:11:02;;;;;;;47.88;33.22;;;6.90;99.90;;;7.21;77.75;102579.09;5074072;28;20131;-72
2023/01/29 09:13:32;;;;;;;48.33;33.38;;;6.90;99.90;;;7.16;77.64;102590.31;5072714;28;20390;-74
2023/01/29 09:16:01;;;;;;;41.00;31.27;;;6.90;99.90;;;7.18;77.99;102581.59;5073766;28;20441;-73
2023/01/29 09:18:31;;;;;;;45.85;34.40;;;6.90;99.90;;;7.28;77.76;102590.72;5071320;28;20063;-71
2023/01/29 09:21:01;;;;;;;50.30;33.60;;;7.00;99.90;;;7.19;77.62;102567.63;5074175;28;20052;-73
2023/01/29 09:23:30;;;;;;;45.15;32.05;;;7.10;99.90;;;7.34;77.91;102583.06;5073911;28;20482;-73
2023/01/29 09:25:59;;;;;;;49.53;33.80;;;7.10;99.90;;;7.30;77.81;102587.31;5073575;28;20044;-71
2023/01/29 09:28:28;;;;;;;48.67;33.92;;;7.00;99.90;;;7.28;77.87;102591.63;5073500;28;20056;-72
2023/01/29 09:31:01;;;;;;;45.83;32.65;;;7.10;99.90;;;7.29;77.61;102592.53;5073567;28;20185;-75
2023/01/29 09:33:31;;;;;;;46.03;33.95;;;7.00;99.90;;;7.31;77.95;102580.34;5072386;28;20056;-77
2023/01/29 09:35:59;;;;;;;48.88;35.40;;;7.00;99.90;;;7.21;77.61;102571.22;5089209;28;20056;-71
2023/01/29 09:38:28;;;;;;;43.72;33.03;;;7.00;99.90;;;7.36;78.02;102585.75;5072418;28;20448;-77
2023/01/29 09:41:07;;;;;;;47.08;35.92;;;7.10;99.90;;;7.18;77.75;102581.59;5074176;28;20490;-80
2023/01/29 09:43:46;;;;;;;45.72;35.28;;;7.00;99.90;;;7.23;77.81;102616.91;5073609;28;20041;-74
2023/01/29 09:46:24;;;;;;;46.97;34.83;;;6.90;99.90;;;6.67;78.27;102476.22;5073295;28;20094;-73
2023/01/29 09:49:01;;;;;;;50.78;35.25;;;7.00;99.90;;;7.25;77.79;102572.22;5073598;28;20409;-76
2023/01/29 09:51:36;;;;;;;48.92;34.63;;;7.00;99.90;;;7.26;78.02;102579.25;5073373;28;20654;-77
2023/01/29 09:54:15;;;;;;;49.90;35.35;;;7.00;99.90;;;7.27;77.98;102578.44;5073210;28;20083;-76
2023/01/29 09:56:45;;;;;;;49.83;33.67;;;7.10;99.90;;;7.32;78.17;102577.75;5073735;28;20555;-76
2023/01/29 09:59:17;;;;;;;51.28;35.78;;;7.10;99.90;;;7.35;77.91;102571.72;5073658;28;20078;-77
2023/01/29 10:02:01;;;;;;;50.38;34.33;;;7.10;99.90;;;7.28;77.96;102565.31;5072942;28;20110;-73
2023/01/29 10:05:05;;;;;;;49.53;35.35;;;7.10;99.90;;;7.34;78.40;102574.28;5073297;28;20086;-76
2023/01/29 10:08:09;;;;;;;47.13;34.33;;;7.00;99.90;;;7.20;77.90;102565.91;5071476;28;20061;-73
2023/01/29 10:10:49;;;;;;;55.47;36.92;;;7.10;99.90;;;7.24;78.50;102560.78;5073324;28;20064;-77
2023/01/29 10:13:29;;;;;;;48.22;35.13;;;7.00;99.90;;;7.19;78.14;102575.53;5073021;28;20090;-75
2023/01/29 10:16:15;;;;;;;50.50;35.38;;;7.00;99.90;;;7.21;78.38;102554.50;5072768;28;20518;-75
2023/01/29 10:19:09;;;;;;;50.55;36.92;;;7.00;99.90;;;7.21;79.07;102546.63;5072479;28;20064;-77
2023/01/29 10:22:02;;;;;;;50.67;36.33;;;7.00;99.90;;;7.23;79.27;102547.56;5072856;28;20036;-75
2023/01/29 10:24:38;;;;;;;49.90;35.90;;;7.00;99.90;;;7.12;79.18;102538.41;5072516;28;20090;-72
2023/01/29 10:27:14;;;;;;;49.75;35.42;;;7.00;99.90;;;7.19;79.47;102543.94;5072541;28;20043;-73
2023/01/29 10:29:45;;;;;;;48.60;35.90;;;6.90;99.90;;;7.19;80.01;102543.03;5072509;28;20049;-73
2023/01/29 10:32:18;;;;;;;51.13;36.20;;;6.90;99.90;;;7.11;79.87;102537.50;5073257;28;20036;-83
2023/01/29 10:34:52;;;;;;;53.28;37.03;;;6.90;99.90;;;6.96;80.42;102507.09;5088310;28;20360;-80
2023/01/29 10:37:24;;;;;;;51.85;36.85;;;6.90;99.90;;;7.17;80.34;102536.81;5072812;28;20032;-76
2023/01/29 10:39:53;;;;;;;52.53;37.65;;;6.90;99.90;;;7.07;80.37;102532.06;5072695;28;20156;-74
2023/01/29 10:42:31;;;;;;;54.03;37.05;;;6.90;99.90;;;7.28;80.66;102535.47;5072401;28;20039;-74
2023/01/29 10:45:13;;;;;;;52.42;37.17;;;7.00;99.90;;;7.30;80.36;102536.41;5073189;28;20071;-77
2023/01/29 10:48:25;;;;;;;51.28;36.90;;;7.00;99.90;;;7.35;80.47;102526.97;5074595;28;20040;-81
2023/01/29 10:51:03;;;;;;;51.75;35.45;;;7.10;99.90;;;7.31;80.33;102504.00;5070286;28;20056;-88
2023/01/29 10:53:48;;;;;;;52.90;37.03;;;7.10;99.90;;;7.29;80.19;102498.69;5089822;28;20098;-82
2023/01/29 10:56:54;;;;;;;53.45;36.03;;;7.20;99.90;;;7.37;80.33;102514.75;5074879;28;20375;-84
2023/01/29 10:59:46;;;;;;;50.00;36.10;;;7.10;99.90;;;7.41;80.32;102507.84;5042346;28;20106;-73